Weather observations for the past three days for
Napa, Napa County Airport
Metric (Imperial)
Date Time (pdt) Wind (kph) Vis. (km) Weather Sky Cond. Temperature (ºC) Relative Humidity Wind Chill (°C) Heat Index (°C) Pressure Precipitation (cm)
Air Dwpt 6 hour altimeter (cm) sea level (mb) 1 hr 3 hr 6 hr
Max. Min.
03 23:54 W 11 16.09 Fair CLR 11.7 10 89% 76.1 1013.6
03 22:54 W 13 16.09 Fair CLR 11.7 10 16.7 11.1 89% 76.1 1013.6
03 21:54 NW 9 16.09 Fair CLR 12.2 10.6 90% 76.07 1013.3
03 20:54 W 19 16.09 Light Rain OVC043 13.3 10.6 84% 76.02 1012.6
03 19:54 W 17 16.09 Light Rain BKN036 OVC045 14.4 10 75% 75.97 1012.1
03 18:54 W 20 16.09 Mostly Cloudy BKN032 15.6 10 70% 75.95 1011.6
03 17:54 W 20 16.09 Mostly Cloudy BKN031 16.1 10 67% 75.95 1011.7
03 16:54 SW 24 G 39 16.09 Mostly Cloudy BKN033 BKN043 16.7 10.6 18.9 15 67% 75.95 1011.6
03 15:54 SW 26 16.09 Partly Cloudy SCT038 18.9 10.6 59% 75.92 1011.3
03 14:54 SW 24 16.09 Partly Cloudy SCT038 18.3 10.6 61% 75.95 1011.7
03 13:54 SW 20 G 30 16.09 Mostly Cloudy SCT030 BKN037 17.8 10.6 63% 75.95 1011.6
03 12:54 SW 19 16.09 Overcast BKN032 OVC037 18.3 10.6 61% 75.97 1011.9
03 11:54 SW 15 16.09 Mostly Cloudy BKN036 16.1 9.4 65% 76 1012.2
03 10:54 W 15 16.09 Overcast BKN026 OVC034 15.6 9.4 15.6 12.2 67% 76 1012.1
03 09:54 W 17 16.09 Mostly Cloudy BKN026 15 9.4 69% 75.97 1011.9
03 08:54 W 11 16.09 Overcast OVC025 12.8 10 83% 75.97 1012.0
03 07:54 W 13 16.09 Overcast OVC023 12.8 9.4 80% 75.92 1011.4
03 06:54 W 11 16.09 Overcast OVC022 12.2 9.4 83% 75.87 1010.6
03 05:54 W 13 16.09 Overcast OVC022 12.2 9.4 83% 75.82 1009.9
03 04:54 W 15 16.09 Overcast OVC021 12.2 9.4 12.2 11.1 83% 75.82 1009.9
03 03:54 W 11 16.09 Overcast OVC019 12.2 9.4 83% 75.82 1010.0
03 02:54 W 11 16.09 Overcast OVC020 12.2 9.4 83% 75.82 1010.0
03 01:54 W 9 16.09 Overcast OVC018 12.2 9.4 83% 75.87 1010.5
03 00:54 SW 11 16.09 Overcast OVC019 11.7 9.4 86% 75.9 1010.8
02 23:54 W 13 16.09 A Few Clouds FEW019 11.1 9.4 89% 75.9 1010.8
02 22:54 W 11 16.09 Mostly Cloudy BKN018 11.1 9.4 17.8 11.1 89% 75.92 1011.3
02 21:54 W 15 16.09 Fair CLR 11.7 9.4 86% 75.92 1011.2
02 20:54 W 19 16.09 Fair CLR 12.2 9.4 83% 75.9 1010.8
02 19:54 W 24 16.09 A Few Clouds FEW024 12.2 9.4 83% 75.84 1010.1
02 18:54 W 17 16.09 Fair CLR 13.9 10 78% 75.84 1010.1
02 17:54 W 22 16.09 Fair CLR 15.6 10 70% 75.84 1010.2
02 16:54 S 20 16.09 Mostly Cloudy BKN024 17.2 11.1 17.2 13.9 68% 75.84 1010.4
02 15:54 S 26 16.09 Overcast OVC022 16.7 11.7 73% 75.9 1011.1
02 14:54 S 26 16.09 Overcast OVC023 16.7 11.7 73% 75.95 1011.8
02 13:54 S 24 16.09 Overcast OVC017 16.1 11.1 72% 76 1012.2
02 12:54 S 19 16.09 Overcast OVC018 16.1 11.1 72% 76.02 1012.6
02 11:54 S 17 16.09 Overcast OVC015 15.6 11.1 75% 76.05 1012.8
02 10:54 SW 19 16.09 Overcast OVC012 13.9 10.6 13.9 12.2 81% 76.05 1012.8
02 09:54 S 19 16.09 Overcast OVC009 13.3 11.1 87% 76.02 1012.7
02 08:54 W 6 16.09 Overcast OVC009 12.8 10.6 87% 76.02 1012.5
02 07:54 W 11 16.09 Overcast BKN009 OVC012 12.2 10.6 90% 75.97 1012.1
02 06:54 W 9 9.66 Fog/Mist OVC009 12.2 10.6 90% 75.95 1011.5
02 05:54 SW 17 G 30 16.09 Overcast OVC010 12.2 10.6 90% 75.92 1011.2
02 04:54 SW 19 16.09 Overcast OVC010 12.2 10.6 12.8 11.7 90% 75.92 1011.2
02 03:54 S 15 16.09 Overcast OVC010 12.2 10.6 90% 75.92 1011.4
02 02:54 SW 13 16.09 Overcast OVC010 12.2 10.6 90% 75.95 1011.6
02 01:54 Calm 16.09 Overcast OVC010 12.8 11.1 90% 75.97 1012.1
02 00:54 SW 11 16.09 Overcast OVC009 12.8 11.1 90% 76 1012.2
01 23:54 W 11 16.09 Overcast OVC010 12.8 11.1 90% 76 1012.3
01 22:54 SW 13 16.09 A Few Clouds FEW013 11.7 10.6 18.3 11.7 93% 76 1012.3
01 21:54 S 15 16.09 Partly Cloudy SCT008 13.3 12.2 93% 76 1012.2
01 20:54 S 15 16.09 Fair CLR 13.3 12.2 93% 75.95 1011.7
01 19:54 S 20 16.09 Fair CLR 14.4 12.2 87% 75.92 1011.2
01 18:54 S 19 16.09 Fair CLR 16.1 12.8 81% 75.9 1011.0
01 17:54 S 20 16.09 Fair CLR 17.2 12.8 76% 75.9 1011.1
01 16:54 SW 19 16.09 Fair CLR 17.8 12.8 18.9 13.9 73% 75.92 1011.3
01 15:54 SW 24 16.09 Fair CLR 18.9 13.3 70% 75.97 1011.8
01 14:54 S 17 16.09 Fair CLR 18.3 12.8 70% 76.05 1012.8
01 13:54 SW 13 16.09 Fair CLR 17.2 12.8 76% 76.07 1013.4
01 12:54 SW 15 16.09 Fair CLR 16.1 12.2 78% 76.12 1013.9
01 11:54 SW 13 16.09 Mostly Cloudy BKN013 15.6 11.7 78% 76.17 1014.7
01 10:54 SW 19 16.09 Overcast OVC009 14.4 11.1 14.4 9.4 81% 76.17 1014.8
01 09:54 SW 11 16.09 Overcast OVC009 13.3 11.1 87% 76.17 1014.7
01 08:54 SW 9 16.09 Overcast OVC009 13.3 11.1 87% 76.15 1014.4
01 07:54 NW 6 14.48 Overcast OVC007 12.2 11.1 93% 76.12 1014.1
01 06:54 N 6 12.87 Overcast OVC009 11.1 10 93% 76.1 1013.6
01 05:54 NW 6 12.87 Overcast OVC010 10 9.4 96% 76.05 1012.9
01 04:54 W 9 14.48 Overcast OVC010 10.6 10 12.2 10 96% 76.05 1012.9
01 03:54 Calm 16.09 Overcast OVC011 11.7 10.6 93% 76.02 1012.7
01 02:54 NW 6 16.09 Overcast OVC010 11.7 10.6 93% 76.02 1012.7
01 01:54 W 7 16.09 Overcast OVC012 11.1 10 93% 76.07 1013.1
01 00:54 Calm 16.09 Overcast OVC011 11.7 10.6 93% 76.07 1013.4
Date Time (pdt) Wind (kph) Vis. (km) Weather Sky Cond. Air Dwpt Max. Min. Relative Humidity Wind Chill (°C) Heat Index (°C) altimeter (cm) sea level (mb) 1 hr 3 hr 6 hr
6 hour
Temperature (ºC) Pressure Precipitation (cm)